sensor_id;sensor_type;location;lat;lon;timestamp;temperature;humidity
33927;DHT22;20485;50.992;5.550;2023-03-14T00:00:16;9.30;99.90
33927;DHT22;20485;50.992;5.550;2023-03-14T00:02:42;9.30;99.90
33927;DHT22;20485;50.992;5.550;2023-03-14T00:05:08;9.30;99.90
33927;DHT22;20485;50.992;5.550;2023-03-14T00:07:36;9.20;99.90
33927;DHT22;20485;50.992;5.550;2023-03-14T00:10:08;9.20;99.90
33927;DHT22;20485;50.992;5.550;2023-03-14T00:12:34;9.20;99.90
33927;DHT22;20485;50.992;5.550;2023-03-14T00:15:00;9.20;99.90
33927;DHT22;20485;50.992;5.550;2023-03-14T00:17:29;9.20;99.90
33927;DHT22;20485;50.992;5.550;2023-03-14T00:19:54;9.10;99.90
33927;DHT22;20485;50.992;5.550;2023-03-14T00:22:20;9.10;99.90
33927;DHT22;20485;50.992;5.550;2023-03-14T00:24:46;9.00;99.90
33927;DHT22;20485;50.992;5.550;2023-03-14T00:27:13;9.10;99.90
33927;DHT22;20485;50.992;5.550;2023-03-14T00:29:38;9.10;99.90
33927;DHT22;20485;50.992;5.550;2023-03-14T00:32:04;9.10;99.90
33927;DHT22;20485;50.992;5.550;2023-03-14T00:34:31;9.10;99.90
33927;DHT22;20485;50.992;5.550;2023-03-14T00:37:00;9.10;99.90
33927;DHT22;20485;50.992;5.550;2023-03-14T00:39:26;9.10;99.90
33927;DHT22;20485;50.992;5.550;2023-03-14T00:41:55;9.10;99.90
33927;DHT22;20485;50.992;5.550;2023-03-14T00:44:21;9.10;99.90
33927;DHT22;20485;50.992;5.550;2023-03-14T00:46:46;9.10;99.90
33927;DHT22;20485;50.992;5.550;2023-03-14T00:49:12;9.10;99.90
33927;DHT22;20485;50.992;5.550;2023-03-14T00:51:38;9.10;99.90
33927;DHT22;20485;50.992;5.550;2023-03-14T00:54:04;9.20;99.90
33927;DHT22;20485;50.992;5.550;2023-03-14T00:56:30;9.20;99.90
33927;DHT22;20485;50.992;5.550;2023-03-14T00:58:56;9.10;99.90
33927;DHT22;20485;50.992;5.550;2023-03-14T01:01:23;9.10;99.90
33927;DHT22;20485;50.992;5.550;2023-03-14T01:03:55;9.20;99.90
33927;DHT22;20485;50.992;5.550;2023-03-14T01:06:26;9.20;99.90
33927;DHT22;20485;50.992;5.550;2023-03-14T01:08:53;9.10;99.90
33927;DHT22;20485;50.992;5.550;2023-03-14T01:11:24;9.10;99.90
33927;DHT22;20485;50.992;5.550;2023-03-14T01:13:51;9.10;99.90
33927;DHT22;20485;50.992;5.550;2023-03-14T01:16:18;9.10;99.90
33927;DHT22;20485;50.992;5.550;2023-03-14T01:18:44;9.10;99.90
33927;DHT22;20485;50.992;5.550;2023-03-14T01:21:17;9.20;99.90
33927;DHT22;20485;50.992;5.550;2023-03-14T01:23:43;9.10;99.90
33927;DHT22;20485;50.992;5.550;2023-03-14T01:26:11;9.10;99.90
33927;DHT22;20485;50.992;5.550;2023-03-14T01:28:46;9.10;99.90
33927;DHT22;20485;50.992;5.550;2023-03-14T01:31:13;9.20;99.90
33927;DHT22;20485;50.992;5.550;2023-03-14T01:33:40;9.20;99.90
33927;DHT22;20485;50.992;5.550;2023-03-14T01:36:06;9.20;99.90
33927;DHT22;20485;50.992;5.550;2023-03-14T01:38:36;9.20;99.90
33927;DHT22;20485;50.992;5.550;2023-03-14T01:41:03;9.20;99.90
33927;DHT22;20485;50.992;5.550;2023-03-14T01:43:29;9.20;99.90
33927;DHT22;20485;50.992;5.550;2023-03-14T01:48:47;9.10;99.90
33927;DHT22;20485;50.992;5.550;2023-03-14T01:51:21;9.10;99.90
33927;DHT22;20485;50.992;5.550;2023-03-14T01:53:51;9.10;99.90
33927;DHT22;20485;50.992;5.550;2023-03-14T01:56:18;9.10;99.90
33927;DHT22;20485;50.992;5.550;2023-03-14T01:58:47;9.10;99.90
33927;DHT22;20485;50.992;5.550;2023-03-14T02:01:17;9.10;99.90
33927;DHT22;20485;50.992;5.550;2023-03-14T02:03:56;9.10;99.90
33927;DHT22;20485;50.992;5.550;2023-03-14T02:06:29;9.10;99.90
33927;DHT22;20485;50.992;5.550;2023-03-14T02:08:57;9.10;99.90
33927;DHT22;20485;50.992;5.550;2023-03-14T02:11:28;9.10;99.90
33927;DHT22;20485;50.992;5.550;2023-03-14T02:13:57;9.00;99.90
33927;DHT22;20485;50.992;5.550;2023-03-14T02:16:23;9.00;99.90
33927;DHT22;20485;50.992;5.550;2023-03-14T02:18:49;9.00;99.90
33927;DHT22;20485;50.992;5.550;2023-03-14T02:24:09;9.00;99.90
33927;DHT22;20485;50.992;5.550;2023-03-14T02:27:12;9.10;99.90
33927;DHT22;20485;50.992;5.550;2023-03-14T02:29:53;9.00;99.90
33927;DHT22;20485;50.992;5.550;2023-03-14T02:32:21;9.10;99.90
33927;DHT22;20485;50.992;5.550;2023-03-14T02:34:51;9.10;99.90
33927;DHT22;20485;50.992;5.550;2023-03-14T02:37:19;9.10;99.90
33927;DHT22;20485;50.992;5.550;2023-03-14T02:39:52;9.10;99.90
33927;DHT22;20485;50.992;5.550;2023-03-14T02:42:18;9.10;99.90
33927;DHT22;20485;50.992;5.550;2023-03-14T02:44:51;9.10;99.90
33927;DHT22;20485;50.992;5.550;2023-03-14T02:47:17;9.00;99.90
33927;DHT22;20485;50.992;5.550;2023-03-14T02:49:44;9.00;99.90
33927;DHT22;20485;50.992;5.550;2023-03-14T02:52:10;9.00;99.90
33927;DHT22;20485;50.992;5.550;2023-03-14T02:54:35;8.90;99.90
33927;DHT22;20485;50.992;5.550;2023-03-14T02:57:03;8.90;99.90
33927;DHT22;20485;50.992;5.550;2023-03-14T02:59:28;8.80;99.90
33927;DHT22;20485;50.992;5.550;2023-03-14T03:01:54;8.80;99.90
33927;DHT22;20485;50.992;5.550;2023-03-14T03:04:20;8.70;99.90
33927;DHT22;20485;50.992;5.550;2023-03-14T03:06:45;8.70;99.90
33927;DHT22;20485;50.992;5.550;2023-03-14T03:09:11;8.70;99.90
33927;DHT22;20485;50.992;5.550;2023-03-14T03:11:37;8.70;99.90
33927;DHT22;20485;50.992;5.550;2023-03-14T03:14:02;8.70;99.90
33927;DHT22;20485;50.992;5.550;2023-03-14T03:16:28;8.70;99.90
33927;DHT22;20485;50.992;5.550;2023-03-14T03:18:54;8.70;99.90
33927;DHT22;20485;50.992;5.550;2023-03-14T03:21:19;8.70;99.90
33927;DHT22;20485;50.992;5.550;2023-03-14T03:23:49;8.60;99.90
33927;DHT22;20485;50.992;5.550;2023-03-14T03:26:14;8.60;99.90
33927;DHT22;20485;50.992;5.550;2023-03-14T03:28:40;8.70;99.90
33927;DHT22;20485;50.992;5.550;2023-03-14T03:31:10;8.60;99.90
33927;DHT22;20485;50.992;5.550;2023-03-14T03:33:39;8.60;99.90
33927;DHT22;20485;50.992;5.550;2023-03-14T03:36:05;8.60;99.90
33927;DHT22;20485;50.992;5.550;2023-03-14T03:38:31;8.50;99.90
33927;DHT22;20485;50.992;5.550;2023-03-14T03:40:57;8.50;99.90
33927;DHT22;20485;50.992;5.550;2023-03-14T03:43:23;8.50;99.90
33927;DHT22;20485;50.992;5.550;2023-03-14T03:45:48;8.60;99.90
33927;DHT22;20485;50.992;5.550;2023-03-14T03:48:14;8.60;99.90
33927;DHT22;20485;50.992;5.550;2023-03-14T03:50:46;8.60;99.90
33927;DHT22;20485;50.992;5.550;2023-03-14T03:53:12;8.60;99.90
33927;DHT22;20485;50.992;5.550;2023-03-14T03:55:41;8.60;99.90
33927;DHT22;20485;50.992;5.550;2023-03-14T03:58:07;8.60;99.90
33927;DHT22;20485;50.992;5.550;2023-03-14T04:00:33;8.60;99.90
33927;DHT22;20485;50.992;5.550;2023-03-14T04:02:59;8.60;99.90
33927;DHT22;20485;50.992;5.550;2023-03-14T04:05:26;8.60;99.90
33927;DHT22;20485;50.992;5.550;2023-03-14T04:07:51;8.60;99.90
33927;DHT22;20485;50.992;5.550;2023-03-14T04:10:17;8.60;99.90
33927;DHT22;20485;50.992;5.550;2023-03-14T04:12:43;8.60;99.90
33927;DHT22;20485;50.992;5.550;2023-03-14T04:15:09;8.60;99.90
33927;DHT22;20485;50.992;5.550;2023-03-14T04:17:35;8.60;99.90
33927;DHT22;20485;50.992;5.550;2023-03-14T04:20:00;8.70;99.90
33927;DHT22;20485;50.992;5.550;2023-03-14T04:22:26;8.70;99.90
33927;DHT22;20485;50.992;5.550;2023-03-14T04:24:52;8.70;99.90
33927;DHT22;20485;50.992;5.550;2023-03-14T04:27:17;8.70;99.90
33927;DHT22;20485;50.992;5.550;2023-03-14T04:29:43;8.70;99.90
33927;DHT22;20485;50.992;5.550;2023-03-14T04:32:09;8.70;99.90
33927;DHT22;20485;50.992;5.550;2023-03-14T04:34:34;8.70;99.90
33927;DHT22;20485;50.992;5.550;2023-03-14T04:37:00;8.70;99.90
33927;DHT22;20485;50.992;5.550;2023-03-14T04:39:26;8.70;99.90
33927;DHT22;20485;50.992;5.550;2023-03-14T04:41:54;8.70;99.90
33927;DHT22;20485;50.992;5.550;2023-03-14T04:44:20;8.70;99.90
33927;DHT22;20485;50.992;5.550;2023-03-14T04:46:46;8.70;99.90
33927;DHT22;20485;50.992;5.550;2023-03-14T04:49:12;8.60;99.90
33927;DHT22;20485;50.992;5.550;2023-03-14T04:51:37;8.60;99.90
33927;DHT22;20485;50.992;5.550;2023-03-14T04:54:03;8.60;99.90
33927;DHT22;20485;50.992;5.550;2023-03-14T04:56:29;8.60;99.90
33927;DHT22;20485;50.992;5.550;2023-03-14T04:58:55;8.60;99.90
33927;DHT22;20485;50.992;5.550;2023-03-14T05:01:23;8.70;99.90
33927;DHT22;20485;50.992;5.550;2023-03-14T05:03:49;8.60;99.90
33927;DHT22;20485;50.992;5.550;2023-03-14T05:06:15;8.60;99.90
33927;DHT22;20485;50.992;5.550;2023-03-14T05:08:40;8.60;99.90
33927;DHT22;20485;50.992;5.550;2023-03-14T05:11:06;8.60;99.90
33927;DHT22;20485;50.992;5.550;2023-03-14T05:13:32;8.60;99.90
33927;DHT22;20485;50.992;5.550;2023-03-14T05:16:08;8.60;99.90
33927;DHT22;20485;50.992;5.550;2023-03-14T05:18:34;8.60;99.90
33927;DHT22;20485;50.992;5.550;2023-03-14T05:20:59;8.60;99.90
33927;DHT22;20485;50.992;5.550;2023-03-14T05:23:25;8.60;99.90
33927;DHT22;20485;50.992;5.550;2023-03-14T05:25:51;8.60;99.90
33927;DHT22;20485;50.992;5.550;2023-03-14T05:28:17;8.60;99.90
33927;DHT22;20485;50.992;5.550;2023-03-14T05:30:43;8.60;99.90
33927;DHT22;20485;50.992;5.550;2023-03-14T05:33:21;8.60;99.90
33927;DHT22;20485;50.992;5.550;2023-03-14T05:35:46;8.60;99.90
33927;DHT22;20485;50.992;5.550;2023-03-14T05:38:12;8.60;99.90
33927;DHT22;20485;50.992;5.550;2023-03-14T05:40:38;8.60;99.90
33927;DHT22;20485;50.992;5.550;2023-03-14T05:43:04;8.60;99.90
33927;DHT22;20485;50.992;5.550;2023-03-14T05:45:29;8.60;99.90
33927;DHT22;20485;50.992;5.550;2023-03-14T05:47:55;8.60;99.90
33927;DHT22;20485;50.992;5.550;2023-03-14T05:50:21;8.60;99.90
33927;DHT22;20485;50.992;5.550;2023-03-14T05:52:46;8.60;99.90
33927;DHT22;20485;50.992;5.550;2023-03-14T05:55:12;8.60;99.90
33927;DHT22;20485;50.992;5.550;2023-03-14T05:57:38;8.60;99.90
33927;DHT22;20485;50.992;5.550;2023-03-14T06:00:04;8.60;99.90
33927;DHT22;20485;50.992;5.550;2023-03-14T06:02:30;8.60;99.90
33927;DHT22;20485;50.992;5.550;2023-03-14T06:04:55;8.60;99.90
33927;DHT22;20485;50.992;5.550;2023-03-14T06:07:21;8.60;99.90
33927;DHT22;20485;50.992;5.550;2023-03-14T06:09:47;8.60;99.90
33927;DHT22;20485;50.992;5.550;2023-03-14T06:12:13;8.60;99.90
33927;DHT22;20485;50.992;5.550;2023-03-14T06:14:39;8.70;99.90
33927;DHT22;20485;50.992;5.550;2023-03-14T06:17:04;8.60;99.90
33927;DHT22;20485;50.992;5.550;2023-03-14T06:19:30;8.60;99.90
33927;DHT22;20485;50.992;5.550;2023-03-14T06:21:56;8.60;99.90
33927;DHT22;20485;50.992;5.550;2023-03-14T06:24:25;8.60;99.90
33927;DHT22;20485;50.992;5.550;2023-03-14T06:26:50;8.70;99.90
33927;DHT22;20485;50.992;5.550;2023-03-14T06:29:16;8.70;99.90
33927;DHT22;20485;50.992;5.550;2023-03-14T06:31:42;8.70;99.90
33927;DHT22;20485;50.992;5.550;2023-03-14T06:34:07;8.70;99.90
33927;DHT22;20485;50.992;5.550;2023-03-14T06:36:33;8.70;99.90
33927;DHT22;20485;50.992;5.550;2023-03-14T06:38:59;8.70;99.90
33927;DHT22;20485;50.992;5.550;2023-03-14T06:41:28;8.70;99.90
33927;DHT22;20485;50.992;5.550;2023-03-14T06:43:54;8.80;99.90
33927;DHT22;20485;50.992;5.550;2023-03-14T06:46:19;8.80;99.90
33927;DHT22;20485;50.992;5.550;2023-03-14T06:48:45;8.80;99.90
33927;DHT22;20485;50.992;5.550;2023-03-14T06:51:11;8.80;99.90
33927;DHT22;20485;50.992;5.550;2023-03-14T06:53:37;8.90;99.90
33927;DHT22;20485;50.992;5.550;2023-03-14T06:56:03;8.90;99.90
33927;DHT22;20485;50.992;5.550;2023-03-14T06:58:28;8.90;99.90
33927;DHT22;20485;50.992;5.550;2023-03-14T07:00:54;8.90;99.90
33927;DHT22;20485;50.992;5.550;2023-03-14T07:03:20;9.00;99.90
33927;DHT22;20485;50.992;5.550;2023-03-14T07:05:46;9.00;99.90
33927;DHT22;20485;50.992;5.550;2023-03-14T07:08:12;9.00;99.90
33927;DHT22;20485;50.992;5.550;2023-03-14T07:10:37;9.00;99.90
33927;DHT22;20485;50.992;5.550;2023-03-14T07:13:03;9.10;99.90
33927;DHT22;20485;50.992;5.550;2023-03-14T07:15:29;9.10;99.90
33927;DHT22;20485;50.992;5.550;2023-03-14T07:17:55;9.20;99.90
33927;DHT22;20485;50.992;5.550;2023-03-14T07:20:20;9.20;99.90
33927;DHT22;20485;50.992;5.550;2023-03-14T07:22:49;9.30;99.90
33927;DHT22;20485;50.992;5.550;2023-03-14T07:25:16;9.30;99.90
33927;DHT22;20485;50.992;5.550;2023-03-14T07:27:46;9.30;99.90
33927;DHT22;20485;50.992;5.550;2023-03-14T07:30:13;9.30;99.90
33927;DHT22;20485;50.992;5.550;2023-03-14T07:32:39;9.30;99.90
33927;DHT22;20485;50.992;5.550;2023-03-14T07:35:06;9.30;99.90
33927;DHT22;20485;50.992;5.550;2023-03-14T07:37:32;9.40;99.90
33927;DHT22;20485;50.992;5.550;2023-03-14T07:39:58;9.40;99.90
33927;DHT22;20485;50.992;5.550;2023-03-14T07:42:23;9.30;99.90
33927;DHT22;20485;50.992;5.550;2023-03-14T07:44:49;9.30;99.90
33927;DHT22;20485;50.992;5.550;2023-03-14T07:47:15;9.30;99.90
33927;DHT22;20485;50.992;5.550;2023-03-14T07:49:40;9.30;99.90
33927;DHT22;20485;50.992;5.550;2023-03-14T07:52:06;9.30;99.90
33927;DHT22;20485;50.992;5.550;2023-03-14T07:54:31;9.30;99.90
33927;DHT22;20485;50.992;5.550;2023-03-14T07:56:57;9.30;99.90
33927;DHT22;20485;50.992;5.550;2023-03-14T07:59:26;9.40;99.90
33927;DHT22;20485;50.992;5.550;2023-03-14T08:01:55;9.40;99.90
33927;DHT22;20485;50.992;5.550;2023-03-14T08:04:21;9.30;99.90
33927;DHT22;20485;50.992;5.550;2023-03-14T08:06:47;9.30;99.90
33927;DHT22;20485;50.992;5.550;2023-03-14T08:09:13;9.20;99.90
33927;DHT22;20485;50.992;5.550;2023-03-14T08:11:38;8.70;99.90
33927;DHT22;20485;50.992;5.550;2023-03-14T08:14:04;8.10;99.90
33927;DHT22;20485;50.992;5.550;2023-03-14T08:16:29;7.90;99.90
33927;DHT22;20485;50.992;5.550;2023-03-14T08:18:55;7.80;99.90
33927;DHT22;20485;50.992;5.550;2023-03-14T08:21:21;7.60;99.90
33927;DHT22;20485;50.992;5.550;2023-03-14T08:23:47;7.50;99.90
33927;DHT22;20485;50.992;5.550;2023-03-14T08:26:13;7.60;99.90
33927;DHT22;20485;50.992;5.550;2023-03-14T08:28:38;7.60;99.90
33927;DHT22;20485;50.992;5.550;2023-03-14T08:31:05;7.60;99.90
33927;DHT22;20485;50.992;5.550;2023-03-14T08:33:31;7.50;99.90
33927;DHT22;20485;50.992;5.550;2023-03-14T08:35:58;7.40;99.90
33927;DHT22;20485;50.992;5.550;2023-03-14T08:38:24;7.30;99.90
33927;DHT22;20485;50.992;5.550;2023-03-14T08:40:56;7.10;99.90
33927;DHT22;20485;50.992;5.550;2023-03-14T08:43:22;7.00;99.90
33927;DHT22;20485;50.992;5.550;2023-03-14T08:45:47;7.00;99.90
33927;DHT22;20485;50.992;5.550;2023-03-14T08:48:13;7.10;99.90
33927;DHT22;20485;50.992;5.550;2023-03-14T08:50:38;7.10;99.90
33927;DHT22;20485;50.992;5.550;2023-03-14T08:53:04;7.20;99.90
33927;DHT22;20485;50.992;5.550;2023-03-14T08:55:30;7.30;99.90
33927;DHT22;20485;50.992;5.550;2023-03-14T08:57:56;7.40;99.90
33927;DHT22;20485;50.992;5.550;2023-03-14T09:00:22;7.40;99.90
33927;DHT22;20485;50.992;5.550;2023-03-14T09:02:48;7.50;99.90
33927;DHT22;20485;50.992;5.550;2023-03-14T09:05:13;7.50;99.90
33927;DHT22;20485;50.992;5.550;2023-03-14T09:07:40;7.70;99.90
33927;DHT22;20485;50.992;5.550;2023-03-14T09:10:07;7.60;99.90
33927;DHT22;20485;50.992;5.550;2023-03-14T09:12:33;7.50;99.90
33927;DHT22;20485;50.992;5.550;2023-03-14T09:14:59;7.50;99.90
33927;DHT22;20485;50.992;5.550;2023-03-14T09:17:25;7.40;99.90
33927;DHT22;20485;50.992;5.550;2023-03-14T09:19:50;7.40;99.90
33927;DHT22;20485;50.992;5.550;2023-03-14T09:22:16;7.20;99.90
33927;DHT22;20485;50.992;5.550;2023-03-14T09:24:42;7.10;99.90
33927;DHT22;20485;50.992;5.550;2023-03-14T09:27:07;7.10;99.90
33927;DHT22;20485;50.992;5.550;2023-03-14T09:29:33;7.10;99.90
33927;DHT22;20485;50.992;5.550;2023-03-14T09:31:59;7.20;99.90
33927;DHT22;20485;50.992;5.550;2023-03-14T09:34:25;7.20;99.90
33927;DHT22;20485;50.992;5.550;2023-03-14T09:36:51;7.30;99.90
33927;DHT22;20485;50.992;5.550;2023-03-14T09:39:17;7.40;99.90
33927;DHT22;20485;50.992;5.550;2023-03-14T09:41:47;7.40;99.90
33927;DHT22;20485;50.992;5.550;2023-03-14T09:44:33;7.40;99.90
33927;DHT22;20485;50.992;5.550;2023-03-14T09:47:04;7.40;99.90
33927;DHT22;20485;50.992;5.550;2023-03-14T09:49:37;7.30;99.90
33927;DHT22;20485;50.992;5.550;2023-03-14T09:54:58;7.50;99.90
33927;DHT22;20485;50.992;5.550;2023-03-14T09:57:26;7.50;99.90
33927;DHT22;20485;50.992;5.550;2023-03-14T09:59:56;7.50;99.90
33927;DHT22;20485;50.992;5.550;2023-03-14T10:02:28;7.40;99.90
33927;DHT22;20485;50.992;5.550;2023-03-14T10:04:57;7.40;99.90
33927;DHT22;20485;50.992;5.550;2023-03-14T10:07:28;7.50;99.90
33927;DHT22;20485;50.992;5.550;2023-03-14T10:09:55;7.60;99.90
33927;DHT22;20485;50.992;5.550;2023-03-14T10:12:31;7.50;99.90
33927;DHT22;20485;50.992;5.550;2023-03-14T10:15:03;7.50;99.90
33927;DHT22;20485;50.992;5.550;2023-03-14T10:17:29;7.60;99.90
33927;DHT22;20485;50.992;5.550;2023-03-14T10:20:03;7.70;99.90
33927;DHT22;20485;50.992;5.550;2023-03-14T10:22:30;7.80;99.90
33927;DHT22;20485;50.992;5.550;2023-03-14T10:25:04;7.70;99.90
33927;DHT22;20485;50.992;5.550;2023-03-14T10:27:32;7.60;99.90
33927;DHT22;20485;50.992;5.550;2023-03-14T10:30:38;7.60;99.90
33927;DHT22;20485;50.992;5.550;2023-03-14T10:33:11;7.60;99.90
33927;DHT22;20485;50.992;5.550;2023-03-14T10:35:37;7.60;99.90
33927;DHT22;20485;50.992;5.550;2023-03-14T10:38:04;7.80;99.90
33927;DHT22;20485;50.992;5.550;2023-03-14T10:40:37;7.80;99.90
33927;DHT22;20485;50.992;5.550;2023-03-14T10:43:05;7.70;99.90
33927;DHT22;20485;50.992;5.550;2023-03-14T10:45:43;7.70;99.90
33927;DHT22;20485;50.992;5.550;2023-03-14T10:56:20;7.50;99.90
33927;DHT22;20485;50.992;5.550;2023-03-14T10:58:50;7.60;99.90
33927;DHT22;20485;50.992;5.550;2023-03-14T11:10:32;7.60;99.90
33927;DHT22;20485;50.992;5.550;2023-03-14T11:12:41;7.40;99.90
33927;DHT22;20485;50.992;5.550;2023-03-14T11:21:31;6.50;99.90
33927;DHT22;20485;50.992;5.550;2023-03-14T11:24:23;6.40;99.90
33927;DHT22;20485;50.992;5.550;2023-03-14T11:27:15;6.40;99.90
33927;DHT22;20485;50.992;5.550;2023-03-14T11:29:58;6.50;99.90
33927;DHT22;20485;50.992;5.550;2023-03-14T11:35:03;6.50;99.90
33927;DHT22;20485;50.992;5.550;2023-03-14T11:37:31;6.50;99.90
33927;DHT22;20485;50.992;5.550;2023-03-14T11:40:12;6.50;99.90
33927;DHT22;20485;50.992;5.550;2023-03-14T11:42:41;6.50;99.90
33927;DHT22;20485;50.992;5.550;2023-03-14T11:45:18;6.60;99.90
33927;DHT22;20485;50.992;5.550;2023-03-14T11:47:51;6.70;99.90
33927;DHT22;20485;50.992;5.550;2023-03-14T11:50:24;6.80;99.90
33927;DHT22;20485;50.992;5.550;2023-03-14T11:53:03;6.90;99.90
33927;DHT22;20485;50.992;5.550;2023-03-14T11:55:35;7.00;99.90
33927;DHT22;20485;50.992;5.550;2023-03-14T12:00:44;7.30;99.90
33927;DHT22;20485;50.992;5.550;2023-03-14T12:13:40;7.50;99.90
33927;DHT22;20485;50.992;5.550;2023-03-14T12:16:35;7.50;99.90
33927;DHT22;20485;50.992;5.550;2023-03-14T12:19:26;7.50;99.90
33927;DHT22;20485;50.992;5.550;2023-03-14T12:24:31;7.00;99.90
33927;DHT22;20485;50.992;5.550;2023-03-14T12:26:59;6.80;99.90
33927;DHT22;20485;50.992;5.550;2023-03-14T12:29:26;6.80;99.90
33927;DHT22;20485;50.992;5.550;2023-03-14T12:34:29;6.90;99.90
33927;DHT22;20485;50.992;5.550;2023-03-14T12:37:35;6.90;99.90
33927;DHT22;20485;50.992;5.550;2023-03-14T12:40:57;6.90;99.90
33927;DHT22;20485;50.992;5.550;2023-03-14T12:43:30;6.90;99.90
33927;DHT22;20485;50.992;5.550;2023-03-14T12:48:42;7.10;99.90
33927;DHT22;20485;50.992;5.550;2023-03-14T12:51:19;7.10;99.90
33927;DHT22;20485;50.992;5.550;2023-03-14T12:53:58;6.50;99.90
33927;DHT22;20485;50.992;5.550;2023-03-14T12:59:51;5.40;99.90
33927;DHT22;20485;50.992;5.550;2023-03-14T13:04:59;5.50;99.90
33927;DHT22;20485;50.992;5.550;2023-03-14T13:07:35;5.70;99.90
33927;DHT22;20485;50.992;5.550;2023-03-14T13:15:34;6.30;99.90
33927;DHT22;20485;50.992;5.550;2023-03-14T13:18:03;6.50;99.90
33927;DHT22;20485;50.992;5.550;2023-03-14T13:20:42;6.50;99.90
33927;DHT22;20485;50.992;5.550;2023-03-14T13:23:27;6.50;99.90
33927;DHT22;20485;50.992;5.550;2023-03-14T13:25:53;6.70;99.90
33927;DHT22;20485;50.992;5.550;2023-03-14T13:28:19;6.60;99.90
33927;DHT22;20485;50.992;5.550;2023-03-14T13:30:47;6.70;99.90
33927;DHT22;20485;50.992;5.550;2023-03-14T13:33:16;6.80;99.90
33927;DHT22;20485;50.992;5.550;2023-03-14T13:35:48;7.00;99.90
33927;DHT22;20485;50.992;5.550;2023-03-14T13:38:22;7.00;99.90
33927;DHT22;20485;50.992;5.550;2023-03-14T13:40:48;6.90;99.90
33927;DHT22;20485;50.992;5.550;2023-03-14T13:43:29;6.90;99.90
33927;DHT22;20485;50.992;5.550;2023-03-14T13:46:33;6.90;99.90
33927;DHT22;20485;50.992;5.550;2023-03-14T13:49:02;6.90;99.90
33927;DHT22;20485;50.992;5.550;2023-03-14T13:51:29;7.00;99.90
33927;DHT22;20485;50.992;5.550;2023-03-14T13:53:58;7.20;99.90
33927;DHT22;20485;50.992;5.550;2023-03-14T13:56:27;7.20;99.90
33927;DHT22;20485;50.992;5.550;2023-03-14T13:58:53;7.20;99.90
33927;DHT22;20485;50.992;5.550;2023-03-14T14:01:24;7.20;99.90
33927;DHT22;20485;50.992;5.550;2023-03-14T14:03:52;7.10;99.90
33927;DHT22;20485;50.992;5.550;2023-03-14T14:08:44;6.90;99.90
33927;DHT22;20485;50.992;5.550;2023-03-14T14:11:22;7.00;99.90
33927;DHT22;20485;50.992;5.550;2023-03-14T14:13:52;7.10;99.90
33927;DHT22;20485;50.992;5.550;2023-03-14T14:16:22;7.20;99.90
33927;DHT22;20485;50.992;5.550;2023-03-14T14:18:49;7.40;99.90
33927;DHT22;20485;50.992;5.550;2023-03-14T14:21:15;7.50;99.90
33927;DHT22;20485;50.992;5.550;2023-03-14T14:23:41;7.70;99.90
33927;DHT22;20485;50.992;5.550;2023-03-14T14:26:07;7.80;99.90
33927;DHT22;20485;50.992;5.550;2023-03-14T14:28:35;8.00;99.90
33927;DHT22;20485;50.992;5.550;2023-03-14T14:31:19;8.10;99.90
33927;DHT22;20485;50.992;5.550;2023-03-14T14:34:00;8.20;99.90
33927;DHT22;20485;50.992;5.550;2023-03-14T14:36:40;8.30;99.90
33927;DHT22;20485;50.992;5.550;2023-03-14T14:39:24;8.20;99.90
33927;DHT22;20485;50.992;5.550;2023-03-14T14:41:51;8.10;99.90
33927;DHT22;20485;50.992;5.550;2023-03-14T14:44:36;8.20;99.90
33927;DHT22;20485;50.992;5.550;2023-03-14T14:47:03;8.10;99.90
33927;DHT22;20485;50.992;5.550;2023-03-14T14:49:31;8.10;99.90
33927;DHT22;20485;50.992;5.550;2023-03-14T14:52:14;8.00;99.90
33927;DHT22;20485;50.992;5.550;2023-03-14T14:57:24;7.90;99.90
33927;DHT22;20485;50.992;5.550;2023-03-14T14:59:51;8.00;99.90
33927;DHT22;20485;50.992;5.550;2023-03-14T15:02:36;7.90;99.90
33927;DHT22;20485;50.992;5.550;2023-03-14T15:05:08;7.90;99.90
33927;DHT22;20485;50.992;5.550;2023-03-14T15:07:37;7.80;99.90
33927;DHT22;20485;50.992;5.550;2023-03-14T15:10:02;7.70;99.90
33927;DHT22;20485;50.992;5.550;2023-03-14T15:12:28;7.70;99.90
33927;DHT22;20485;50.992;5.550;2023-03-14T15:14:54;7.60;99.90
33927;DHT22;20485;50.992;5.550;2023-03-14T15:17:22;7.60;99.90
33927;DHT22;20485;50.992;5.550;2023-03-14T15:19:48;7.50;99.90
33927;DHT22;20485;50.992;5.550;2023-03-14T15:22:14;7.50;99.90
33927;DHT22;20485;50.992;5.550;2023-03-14T15:24:41;7.30;99.90
33927;DHT22;20485;50.992;5.550;2023-03-14T15:27:15;7.20;99.90
33927;DHT22;20485;50.992;5.550;2023-03-14T15:29:41;7.20;99.90
33927;DHT22;20485;50.992;5.550;2023-03-14T15:32:14;7.10;99.90
33927;DHT22;20485;50.992;5.550;2023-03-14T15:34:40;7.00;99.90
33927;DHT22;20485;50.992;5.550;2023-03-14T15:37:15;6.90;99.90
33927;DHT22;20485;50.992;5.550;2023-03-14T15:39:45;6.80;99.90
33927;DHT22;20485;50.992;5.550;2023-03-14T15:42:11;6.60;99.90
33927;DHT22;20485;50.992;5.550;2023-03-14T15:44:37;6.50;99.90
33927;DHT22;20485;50.992;5.550;2023-03-14T15:47:04;6.40;99.90
33927;DHT22;20485;50.992;5.550;2023-03-14T15:49:31;6.20;99.90
33927;DHT22;20485;50.992;5.550;2023-03-14T15:51:57;6.10;99.90
33927;DHT22;20485;50.992;5.550;2023-03-14T15:54:23;6.00;99.90
33927;DHT22;20485;50.992;5.550;2023-03-14T15:56:54;6.10;99.90
33927;DHT22;20485;50.992;5.550;2023-03-14T15:59:20;6.10;99.90
33927;DHT22;20485;50.992;5.550;2023-03-14T16:01:46;6.10;99.90
33927;DHT22;20485;50.992;5.550;2023-03-14T16:04:13;6.10;99.90
33927;DHT22;20485;50.992;5.550;2023-03-14T16:06:39;6.10;99.90
33927;DHT22;20485;50.992;5.550;2023-03-14T16:09:05;6.10;99.90
33927;DHT22;20485;50.992;5.550;2023-03-14T16:11:31;6.10;99.90
33927;DHT22;20485;50.992;5.550;2023-03-14T16:13:56;6.10;99.90
33927;DHT22;20485;50.992;5.550;2023-03-14T16:16:22;6.20;99.90
33927;DHT22;20485;50.992;5.550;2023-03-14T16:18:48;6.30;99.90
33927;DHT22;20485;50.992;5.550;2023-03-14T16:21:18;6.30;99.90
33927;DHT22;20485;50.992;5.550;2023-03-14T16:23:44;6.30;99.90
33927;DHT22;20485;50.992;5.550;2023-03-14T16:26:16;6.40;99.90
33927;DHT22;20485;50.992;5.550;2023-03-14T16:28:43;6.40;99.90
33927;DHT22;20485;50.992;5.550;2023-03-14T16:31:14;6.40;99.90
33927;DHT22;20485;50.992;5.550;2023-03-14T16:33:44;6.40;99.90
33927;DHT22;20485;50.992;5.550;2023-03-14T16:36:12;6.50;99.90
33927;DHT22;20485;50.992;5.550;2023-03-14T16:38:40;6.30;99.90
33927;DHT22;20485;50.992;5.550;2023-03-14T16:41:16;6.30;99.90
33927;DHT22;20485;50.992;5.550;2023-03-14T16:43:42;6.20;99.90
33927;DHT22;20485;50.992;5.550;2023-03-14T16:46:16;6.30;99.90
33927;DHT22;20485;50.992;5.550;2023-03-14T16:48:42;6.20;99.90
33927;DHT22;20485;50.992;5.550;2023-03-14T16:51:08;6.10;99.90
33927;DHT22;20485;50.992;5.550;2023-03-14T16:53:34;6.00;99.90
33927;DHT22;20485;50.992;5.550;2023-03-14T16:56:00;6.10;99.90
33927;DHT22;20485;50.992;5.550;2023-03-14T16:58:26;6.00;99.90
33927;DHT22;20485;50.992;5.550;2023-03-14T17:00:52;6.00;99.90
33927;DHT22;20485;50.992;5.550;2023-03-14T17:03:18;5.90;99.90
33927;DHT22;20485;50.992;5.550;2023-03-14T17:05:49;5.90;99.90